Huntsville (HSV/KHSV)

Map

Information

Location
Huntsville, AL
Local Time
00:02 / 12:02 am
GMT Time
06:02 / 6:02 am
Gates
Unassigned
No FAA reported delays
METAR KHSV 140553Z 23005KT 10SM CLR 04/M03 A2984 RMK AO2 SLP106 T00441033 10083 20039 401111044 58001
TAF KHSV 140520Z 1406/1506 25005KT P6SM FEW150 SCT250 FM141000 34008KT P6SM SCT020 FM141600 34008KT P6SM FEW025 FEW150 SCT250 FM142300 35005KT P6SM FEW150 SCT250